sensor_id;sensor_type;location;lat;lon;timestamp;pressure;altitude;pressure_sealevel;temperature;humidity
13767;BME280;47980;48.794;9.176;2023-09-30T00:02:03;99076.13;;;18.60;80.93
13767;BME280;47980;48.794;9.176;2023-09-30T00:04:36;99077.47;;;18.50;80.89
13767;BME280;47980;48.794;9.176;2023-09-30T00:07:08;99076.63;;;18.46;81.61
13767;BME280;47980;48.794;9.176;2023-09-30T00:09:40;99071.59;;;18.45;81.49
13767;BME280;47980;48.794;9.176;2023-09-30T00:12:12;99075.53;;;18.32;82.94
13767;BME280;47980;48.794;9.176;2023-09-30T00:14:43;99069.41;;;18.50;82.33
13767;BME280;47980;48.794;9.176;2023-09-30T00:17:15;99065.94;;;18.50;81.60
13767;BME280;47980;48.794;9.176;2023-09-30T00:19:48;99069.25;;;18.43;82.59
13767;BME280;47980;48.794;9.176;2023-09-30T00:22:19;99077.25;;;18.40;82.35
13767;BME280;47980;48.794;9.176;2023-09-30T00:24:50;99071.59;;;18.45;82.50
13767;BME280;47980;48.794;9.176;2023-09-30T00:27:22;99067.97;;;18.37;82.99
13767;BME280;47980;48.794;9.176;2023-09-30T00:29:53;99066.09;;;18.38;83.28
13767;BME280;47980;48.794;9.176;2023-09-30T00:32:25;99066.16;;;18.61;81.89
13767;BME280;47980;48.794;9.176;2023-09-30T00:34:58;99074.44;;;18.52;83.05
13767;BME280;47980;48.794;9.176;2023-09-30T00:37:29;99078.72;;;18.37;85.29
13767;BME280;47980;48.794;9.176;2023-09-30T00:40:01;99079.69;;;18.29;85.83
13767;BME280;47980;48.794;9.176;2023-09-30T00:42:33;99080.13;;;18.31;86.10
13767;BME280;47980;48.794;9.176;2023-09-30T00:45:05;99082.63;;;18.40;87.13
13767;BME280;47980;48.794;9.176;2023-09-30T00:47:37;99078.94;;;18.28;88.40
13767;BME280;47980;48.794;9.176;2023-09-30T00:50:10;99072.56;;;18.37;88.03
13767;BME280;47980;48.794;9.176;2023-09-30T00:52:45;99088.81;;;18.24;88.68
13767;BME280;47980;48.794;9.176;2023-09-30T00:55:17;99084.22;;;18.25;89.29
13767;BME280;47980;48.794;9.176;2023-09-30T00:57:50;99084.28;;;18.09;89.13
13767;BME280;47980;48.794;9.176;2023-09-30T01:00:21;99081.34;;;17.83;91.76
13767;BME280;47980;48.794;9.176;2023-09-30T01:02:55;99074.50;;;17.85;91.39
13767;BME280;47980;48.794;9.176;2023-09-30T01:05:31;99081.41;;;17.70;92.98
13767;BME280;47980;48.794;9.176;2023-09-30T01:08:03;99081.63;;;17.62;93.71
13767;BME280;47980;48.794;9.176;2023-09-30T01:10:35;99077.44;;;17.64;94.03
13767;BME280;47980;48.794;9.176;2023-09-30T01:13:06;99080.66;;;17.70;92.44
13767;BME280;47980;48.794;9.176;2023-09-30T01:15:38;99081.78;;;17.69;91.92
13767;BME280;47980;48.794;9.176;2023-09-30T01:18:09;99082.72;;;17.61;91.35
13767;BME280;47980;48.794;9.176;2023-09-30T01:20:43;99083.75;;;17.56;91.06
13767;BME280;47980;48.794;9.176;2023-09-30T01:23:16;99079.94;;;17.57;91.56
13767;BME280;47980;48.794;9.176;2023-09-30T01:25:47;99077.34;;;17.45;92.37
13767;BME280;47980;48.794;9.176;2023-09-30T01:28:19;99073.13;;;17.44;92.33
13767;BME280;47980;48.794;9.176;2023-09-30T01:30:51;99079.59;;;17.43;92.86
13767;BME280;47980;48.794;9.176;2023-09-30T01:33:23;99082.53;;;17.38;92.79
13767;BME280;47980;48.794;9.176;2023-09-30T01:35:54;99089.38;;;17.35;93.55
13767;BME280;47980;48.794;9.176;2023-09-30T01:38:27;99090.78;;;17.29;93.29
13767;BME280;47980;48.794;9.176;2023-09-30T01:40:58;99088.78;;;17.26;93.42
13767;BME280;47980;48.794;9.176;2023-09-30T01:43:30;99083.22;;;17.35;93.19
13767;BME280;47980;48.794;9.176;2023-09-30T01:46:01;99086.78;;;17.23;94.24
13767;BME280;47980;48.794;9.176;2023-09-30T01:48:33;99084.94;;;17.27;94.30
13767;BME280;47980;48.794;9.176;2023-09-30T01:51:05;99082.38;;;17.30;94.60
13767;BME280;47980;48.794;9.176;2023-09-30T01:53:37;99082.72;;;17.29;95.49
13767;BME280;47980;48.794;9.176;2023-09-30T01:56:09;99075.09;;;17.31;95.33
13767;BME280;47980;48.794;9.176;2023-09-30T01:58:41;99077.00;;;17.30;96.08
13767;BME280;47980;48.794;9.176;2023-09-30T02:01:13;99076.03;;;17.39;95.06
13767;BME280;47980;48.794;9.176;2023-09-30T02:03:45;99080.03;;;17.29;96.57
13767;BME280;47980;48.794;9.176;2023-09-30T02:06:17;99077.84;;;17.19;97.50
13767;BME280;47980;48.794;9.176;2023-09-30T02:08:49;99077.16;;;17.22;98.35
13767;BME280;47980;48.794;9.176;2023-09-30T02:11:21;99076.81;;;17.23;96.95
13767;BME280;47980;48.794;9.176;2023-09-30T02:13:53;99075.34;;;17.26;97.53
13767;BME280;47980;48.794;9.176;2023-09-30T02:16:24;99076.22;;;17.14;97.73
13767;BME280;47980;48.794;9.176;2023-09-30T02:18:56;99091.50;;;17.14;98.66
13767;BME280;47980;48.794;9.176;2023-09-30T02:21:27;99096.09;;;17.13;97.32
13767;BME280;47980;48.794;9.176;2023-09-30T02:24:00;99102.38;;;17.05;99.21
13767;BME280;47980;48.794;9.176;2023-09-30T02:26:32;99095.50;;;16.92;98.95
13767;BME280;47980;48.794;9.176;2023-09-30T02:29:04;99100.53;;;16.93;100.00
13767;BME280;47980;48.794;9.176;2023-09-30T02:31:37;99099.09;;;16.96;100.00
13767;BME280;47980;48.794;9.176;2023-09-30T02:34:09;99101.06;;;16.99;98.03
13767;BME280;47980;48.794;9.176;2023-09-30T02:36:40;99100.75;;;17.00;99.01
13767;BME280;47980;48.794;9.176;2023-09-30T02:39:13;99105.06;;;17.05;98.98
13767;BME280;47980;48.794;9.176;2023-09-30T02:41:46;99107.75;;;17.05;99.60
13767;BME280;47980;48.794;9.176;2023-09-30T02:44:20;99108.19;;;17.07;98.04
13767;BME280;47980;48.794;9.176;2023-09-30T02:46:51;99103.41;;;17.00;99.16
13767;BME280;47980;48.794;9.176;2023-09-30T02:49:23;99106.72;;;17.09;98.30
13767;BME280;47980;48.794;9.176;2023-09-30T02:51:54;99106.13;;;17.16;97.23
13767;BME280;47980;48.794;9.176;2023-09-30T02:54:27;99109.69;;;17.20;95.27
13767;BME280;47980;48.794;9.176;2023-09-30T02:56:59;99103.22;;;17.21;94.27
13767;BME280;47980;48.794;9.176;2023-09-30T02:59:30;99092.59;;;17.25;93.32
13767;BME280;47980;48.794;9.176;2023-09-30T03:02:02;99093.34;;;17.25;93.05
13767;BME280;47980;48.794;9.176;2023-09-30T03:04:34;99098.91;;;17.32;92.73
13767;BME280;47980;48.794;9.176;2023-09-30T03:07:06;99109.91;;;17.43;92.64
13767;BME280;47980;48.794;9.176;2023-09-30T03:09:40;99123.56;;;17.38;92.70
13767;BME280;47980;48.794;9.176;2023-09-30T03:12:12;99131.19;;;17.36;92.07
13767;BME280;47980;48.794;9.176;2023-09-30T03:14:44;99137.22;;;17.33;91.57
13767;BME280;47980;48.794;9.176;2023-09-30T03:17:15;99148.09;;;17.24;91.97
13767;BME280;47980;48.794;9.176;2023-09-30T03:19:47;99137.22;;;17.33;92.20
13767;BME280;47980;48.794;9.176;2023-09-30T03:22:20;99145.97;;;17.30;91.53
13767;BME280;47980;48.794;9.176;2023-09-30T03:24:55;99140.06;;;17.24;93.45
13767;BME280;47980;48.794;9.176;2023-09-30T03:27:27;99144.53;;;17.20;92.51
13767;BME280;47980;48.794;9.176;2023-09-30T03:29:58;99139.44;;;17.15;93.13
13767;BME280;47980;48.794;9.176;2023-09-30T03:32:31;99132.16;;;17.16;93.79
13767;BME280;47980;48.794;9.176;2023-09-30T03:35:04;99134.47;;;17.01;94.62
13767;BME280;47980;48.794;9.176;2023-09-30T03:37:36;99140.38;;;17.07;92.74
13767;BME280;47980;48.794;9.176;2023-09-30T03:40:10;99147.22;;;17.20;92.25
13767;BME280;47980;48.794;9.176;2023-09-30T03:42:46;99133.19;;;17.11;93.35
13767;BME280;47980;48.794;9.176;2023-09-30T03:45:19;99121.25;;;17.08;92.77
13767;BME280;47980;48.794;9.176;2023-09-30T03:47:50;99118.72;;;17.00;93.74
13767;BME280;47980;48.794;9.176;2023-09-30T03:50:22;99107.78;;;17.21;92.69
13767;BME280;47980;48.794;9.176;2023-09-30T03:53:01;99108.25;;;17.39;89.75
13767;BME280;47980;48.794;9.176;2023-09-30T03:55:34;99100.75;;;17.16;92.03
13767;BME280;47980;48.794;9.176;2023-09-30T03:58:07;99104.66;;;17.19;92.12
13767;BME280;47980;48.794;9.176;2023-09-30T04:00:38;99113.13;;;17.21;92.81
13767;BME280;47980;48.794;9.176;2023-09-30T04:03:10;99108.28;;;17.11;92.78
13767;BME280;47980;48.794;9.176;2023-09-30T04:05:42;99110.63;;;17.12;93.06
13767;BME280;47980;48.794;9.176;2023-09-30T04:08:13;99103.41;;;17.00;93.37
13767;BME280;47980;48.794;9.176;2023-09-30T04:10:46;99118.03;;;17.03;93.34
13767;BME280;47980;48.794;9.176;2023-09-30T04:13:18;99126.16;;;17.06;93.41
13767;BME280;47980;48.794;9.176;2023-09-30T04:15:51;99115.63;;;17.14;92.43
13767;BME280;47980;48.794;9.176;2023-09-30T04:18:23;99122.56;;;17.15;92.38
13767;BME280;47980;48.794;9.176;2023-09-30T04:20:56;99126.72;;;17.12;92.31
13767;BME280;47980;48.794;9.176;2023-09-30T04:23:28;99120.09;;;17.22;91.74
13767;BME280;47980;48.794;9.176;2023-09-30T04:26:01;99113.13;;;17.05;91.98
13767;BME280;47980;48.794;9.176;2023-09-30T04:28:32;99105.66;;;16.98;94.07
13767;BME280;47980;48.794;9.176;2023-09-30T04:31:04;99106.22;;;16.92;93.69
13767;BME280;47980;48.794;9.176;2023-09-30T04:33:37;99117.50;;;16.97;94.17
13767;BME280;47980;48.794;9.176;2023-09-30T04:36:10;99121.16;;;17.05;93.49
13767;BME280;47980;48.794;9.176;2023-09-30T04:38:41;99118.13;;;17.06;93.39
13767;BME280;47980;48.794;9.176;2023-09-30T04:41:14;99122.88;;;16.97;93.76
13767;BME280;47980;48.794;9.176;2023-09-30T04:43:46;99134.38;;;16.98;94.79
13767;BME280;47980;48.794;9.176;2023-09-30T04:46:18;99138.38;;;17.04;94.32
13767;BME280;47980;48.794;9.176;2023-09-30T04:48:52;99146.75;;;17.02;94.13
13767;BME280;47980;48.794;9.176;2023-09-30T04:51:23;99141.78;;;17.17;93.36
13767;BME280;47980;48.794;9.176;2023-09-30T04:53:56;99141.56;;;17.09;93.66
13767;BME280;47980;48.794;9.176;2023-09-30T04:56:31;99146.50;;;17.07;93.61
13767;BME280;47980;48.794;9.176;2023-09-30T04:59:02;99155.56;;;17.03;93.76
13767;BME280;47980;48.794;9.176;2023-09-30T05:01:34;99153.22;;;17.01;93.90
13767;BME280;47980;48.794;9.176;2023-09-30T05:04:06;99161.38;;;17.05;93.37
13767;BME280;47980;48.794;9.176;2023-09-30T05:06:37;99163.91;;;17.14;92.96
13767;BME280;47980;48.794;9.176;2023-09-30T05:09:08;99163.47;;;17.12;93.97
13767;BME280;47980;48.794;9.176;2023-09-30T05:11:41;99163.91;;;17.14;93.85
13767;BME280;47980;48.794;9.176;2023-09-30T05:14:13;99163.22;;;17.17;92.62
13767;BME280;47980;48.794;9.176;2023-09-30T05:16:46;99160.13;;;17.15;93.26
13767;BME280;47980;48.794;9.176;2023-09-30T05:19:18;99167.50;;;17.05;94.10
13767;BME280;47980;48.794;9.176;2023-09-30T05:21:51;99171.59;;;16.87;95.73
13767;BME280;47980;48.794;9.176;2023-09-30T05:24:22;99172.63;;;16.82;96.71
13767;BME280;47980;48.794;9.176;2023-09-30T05:26:55;99173.84;;;16.85;96.52
13767;BME280;47980;48.794;9.176;2023-09-30T05:29:26;99166.47;;;16.82;96.18
13767;BME280;47980;48.794;9.176;2023-09-30T05:31:58;99157.31;;;16.83;96.37
13767;BME280;47980;48.794;9.176;2023-09-30T05:34:30;99160.09;;;16.87;96.31
13767;BME280;47980;48.794;9.176;2023-09-30T05:37:01;99158.09;;;16.59;97.29
13767;BME280;47980;48.794;9.176;2023-09-30T05:39:33;99151.41;;;16.65;96.67
13767;BME280;47980;48.794;9.176;2023-09-30T05:42:06;99159.78;;;16.64;96.75
13767;BME280;47980;48.794;9.176;2023-09-30T05:44:38;99157.56;;;16.53;97.77
13767;BME280;47980;48.794;9.176;2023-09-30T05:47:09;99150.19;;;16.63;97.27
13767;BME280;47980;48.794;9.176;2023-09-30T05:49:41;99160.47;;;16.60;97.23
13767;BME280;47980;48.794;9.176;2023-09-30T05:52:13;99169.84;;;16.67;97.75
13767;BME280;47980;48.794;9.176;2023-09-30T05:54:44;99182.78;;;16.89;96.67
13767;BME280;47980;48.794;9.176;2023-09-30T05:57:17;99186.06;;;16.98;95.77
13767;BME280;47980;48.794;9.176;2023-09-30T05:59:49;99180.78;;;17.14;94.85
13767;BME280;47980;48.794;9.176;2023-09-30T06:02:20;99188.59;;;17.19;95.20
13767;BME280;47980;48.794;9.176;2023-09-30T06:04:52;99186.78;;;17.23;93.73
13767;BME280;47980;48.794;9.176;2023-09-30T06:07:24;99180.44;;;17.44;92.08
13767;BME280;47980;48.794;9.176;2023-09-30T06:09:56;99187.94;;;17.38;92.10
13767;BME280;47980;48.794;9.176;2023-09-30T06:12:29;99188.13;;;17.45;91.29
13767;BME280;47980;48.794;9.176;2023-09-30T06:15:01;99203.00;;;17.43;91.26
13767;BME280;47980;48.794;9.176;2023-09-30T06:17:33;99218.97;;;17.51;90.75
13767;BME280;47980;48.794;9.176;2023-09-30T06:20:05;99212.19;;;17.42;89.59
13767;BME280;47980;48.794;9.176;2023-09-30T06:22:39;99208.75;;;17.57;89.52
13767;BME280;47980;48.794;9.176;2023-09-30T06:25:12;99222.88;;;17.54;88.86
13767;BME280;47980;48.794;9.176;2023-09-30T06:27:48;99221.94;;;17.62;88.25
13767;BME280;47980;48.794;9.176;2023-09-30T06:30:20;99213.03;;;17.74;87.49
13767;BME280;47980;48.794;9.176;2023-09-30T06:32:52;99217.16;;;17.55;89.13
13767;BME280;47980;48.794;9.176;2023-09-30T06:35:24;99219.09;;;17.71;88.50
13767;BME280;47980;48.794;9.176;2023-09-30T06:37:56;99218.88;;;17.64;88.30
13767;BME280;47980;48.794;9.176;2023-09-30T06:40:28;99218.34;;;17.86;87.11
13767;BME280;47980;48.794;9.176;2023-09-30T06:43:00;99222.34;;;17.76;86.92
13767;BME280;47980;48.794;9.176;2023-09-30T06:45:32;99220.16;;;17.82;85.70
13767;BME280;47980;48.794;9.176;2023-09-30T06:48:04;99228.50;;;18.24;84.25
13767;BME280;47980;48.794;9.176;2023-09-30T06:50:36;99237.00;;;18.26;82.19
13767;BME280;47980;48.794;9.176;2023-09-30T06:53:07;99232.22;;;18.36;82.10
13767;BME280;47980;48.794;9.176;2023-09-30T06:55:39;99238.78;;;18.54;81.68
13767;BME280;47980;48.794;9.176;2023-09-30T06:58:12;99248.50;;;18.74;80.29
13767;BME280;47980;48.794;9.176;2023-09-30T07:00:44;99252.75;;;18.60;81.45
13767;BME280;47980;48.794;9.176;2023-09-30T07:03:16;99244.44;;;18.33;83.00
13767;BME280;47980;48.794;9.176;2023-09-30T07:05:48;99250.34;;;18.23;82.83
13767;BME280;47980;48.794;9.176;2023-09-30T07:08:20;99243.34;;;18.34;81.72
13767;BME280;47980;48.794;9.176;2023-09-30T07:10:51;99228.00;;;18.35;82.08
13767;BME280;47980;48.794;9.176;2023-09-30T07:13:25;99229.53;;;18.36;80.74
13767;BME280;47980;48.794;9.176;2023-09-30T07:15:56;99225.19;;;18.15;83.27
13767;BME280;47980;48.794;9.176;2023-09-30T07:18:28;99233.34;;;18.19;82.06
13767;BME280;47980;48.794;9.176;2023-09-30T07:20:59;99237.09;;;17.98;83.18
13767;BME280;47980;48.794;9.176;2023-09-30T07:23:31;99246.09;;;18.06;83.89
13767;BME280;47980;48.794;9.176;2023-09-30T07:26:03;99245.38;;;17.93;84.40
13767;BME280;47980;48.794;9.176;2023-09-30T07:28:36;99256.16;;;18.09;83.17
13767;BME280;47980;48.794;9.176;2023-09-30T07:31:07;99257.97;;;18.21;83.73
13767;BME280;47980;48.794;9.176;2023-09-30T07:33:39;99266.88;;;18.41;83.67
13767;BME280;47980;48.794;9.176;2023-09-30T07:36:10;99272.53;;;18.36;80.10
13767;BME280;47980;48.794;9.176;2023-09-30T07:38:43;99262.47;;;18.33;81.83
13767;BME280;47980;48.794;9.176;2023-09-30T07:41:15;99258.41;;;18.39;81.64
13767;BME280;47980;48.794;9.176;2023-09-30T07:43:48;99259.16;;;18.55;80.20
13767;BME280;47980;48.794;9.176;2023-09-30T07:46:20;99253.72;;;18.36;80.83
13767;BME280;47980;48.794;9.176;2023-09-30T07:48:51;99266.78;;;18.69;79.68
13767;BME280;47980;48.794;9.176;2023-09-30T07:51:23;99266.66;;;18.97;77.53
13767;BME280;47980;48.794;9.176;2023-09-30T07:53:54;99265.59;;;19.02;76.29
13767;BME280;47980;48.794;9.176;2023-09-30T07:56:27;99278.84;;;18.75;77.94
13767;BME280;47980;48.794;9.176;2023-09-30T07:59:00;99290.34;;;18.91;76.09
13767;BME280;47980;48.794;9.176;2023-09-30T08:01:33;99285.84;;;18.95;76.25
13767;BME280;47980;48.794;9.176;2023-09-30T08:04:04;99283.34;;;18.87;77.49
13767;BME280;47980;48.794;9.176;2023-09-30T08:06:36;99285.38;;;18.74;77.83
13767;BME280;47980;48.794;9.176;2023-09-30T08:09:07;99281.81;;;19.05;76.77
13767;BME280;47980;48.794;9.176;2023-09-30T08:11:41;99274.13;;;19.42;74.92
13767;BME280;47980;48.794;9.176;2023-09-30T08:14:15;99269.59;;;19.27;73.71
13767;BME280;47980;48.794;9.176;2023-09-30T08:16:46;99262.66;;;19.26;75.47
13767;BME280;47980;48.794;9.176;2023-09-30T08:19:19;99270.59;;;19.58;71.96
13767;BME280;47980;48.794;9.176;2023-09-30T08:21:51;99269.34;;;19.32;74.78
13767;BME280;47980;48.794;9.176;2023-09-30T08:24:22;99269.66;;;19.89;71.99
13767;BME280;47980;48.794;9.176;2023-09-30T08:26:54;99273.59;;;18.98;76.56
13767;BME280;47980;48.794;9.176;2023-09-30T08:29:28;99270.56;;;19.96;71.09
13767;BME280;47980;48.794;9.176;2023-09-30T08:31:59;99264.75;;;19.17;74.69
13767;BME280;47980;48.794;9.176;2023-09-30T08:34:31;99265.78;;;19.86;72.72
13767;BME280;47980;48.794;9.176;2023-09-30T08:37:03;99265.88;;;20.39;70.60
13767;BME280;47980;48.794;9.176;2023-09-30T08:39:37;99269.47;;;20.47;69.22
13767;BME280;47980;48.794;9.176;2023-09-30T08:42:10;99265.31;;;20.76;69.05
13767;BME280;47980;48.794;9.176;2023-09-30T08:44:44;99262.25;;;20.51;68.12
13767;BME280;47980;48.794;9.176;2023-09-30T08:47:15;99241.69;;;20.43;68.71
13767;BME280;47980;48.794;9.176;2023-09-30T08:49:48;99260.78;;;20.84;65.31
13767;BME280;47980;48.794;9.176;2023-09-30T08:52:26;99262.91;;;21.28;64.18
13767;BME280;47980;48.794;9.176;2023-09-30T08:54:57;99266.25;;;20.87;65.67
13767;BME280;47980;48.794;9.176;2023-09-30T08:57:30;99260.78;;;21.10;64.82
13767;BME280;47980;48.794;9.176;2023-09-30T09:00:04;99259.97;;;21.06;64.02
13767;BME280;47980;48.794;9.176;2023-09-30T09:02:36;99255.38;;;21.10;63.64
13767;BME280;47980;48.794;9.176;2023-09-30T09:05:09;99256.88;;;21.38;63.01
13767;BME280;47980;48.794;9.176;2023-09-30T09:07:41;99249.66;;;21.46;63.48
13767;BME280;47980;48.794;9.176;2023-09-30T09:10:13;99254.00;;;21.54;61.01
13767;BME280;47980;48.794;9.176;2023-09-30T09:12:54;99257.00;;;21.82;62.11
13767;BME280;47980;48.794;9.176;2023-09-30T09:15:28;99266.13;;;21.71;59.16
13767;BME280;47980;48.794;9.176;2023-09-30T09:18:00;99269.44;;;21.53;60.33
13767;BME280;47980;48.794;9.176;2023-09-30T09:20:31;99277.31;;;22.10;59.63
13767;BME280;47980;48.794;9.176;2023-09-30T09:23:06;99274.31;;;22.15;58.95
13767;BME280;47980;48.794;9.176;2023-09-30T09:25:38;99272.13;;;21.91;61.77
13767;BME280;47980;48.794;9.176;2023-09-30T09:28:10;99261.78;;;22.41;60.11
13767;BME280;47980;48.794;9.176;2023-09-30T09:30:42;99274.00;;;21.83;61.06
13767;BME280;47980;48.794;9.176;2023-09-30T09:33:14;99273.94;;;21.15;63.31
13767;BME280;47980;48.794;9.176;2023-09-30T09:35:48;99275.28;;;21.59;62.09
13767;BME280;47980;48.794;9.176;2023-09-30T09:38:19;99262.41;;;21.49;61.36
13767;BME280;47980;48.794;9.176;2023-09-30T09:40:51;99248.91;;;21.49;61.71
13767;BME280;47980;48.794;9.176;2023-09-30T09:43:22;99257.44;;;21.51;62.01
13767;BME280;47980;48.794;9.176;2023-09-30T09:45:56;99246.63;;;21.51;60.87
13767;BME280;47980;48.794;9.176;2023-09-30T09:48:28;99238.84;;;21.15;62.26
13767;BME280;47980;48.794;9.176;2023-09-30T09:51:00;99248.00;;;21.07;63.14
13767;BME280;47980;48.794;9.176;2023-09-30T09:53:35;99243.91;;;21.47;62.09
13767;BME280;47980;48.794;9.176;2023-09-30T09:56:08;99245.75;;;21.13;61.77
13767;BME280;47980;48.794;9.176;2023-09-30T09:58:42;99246.03;;;21.34;62.93
13767;BME280;47980;48.794;9.176;2023-09-30T10:01:15;99248.63;;;21.57;62.14
13767;BME280;47980;48.794;9.176;2023-09-30T10:03:47;99245.75;;;21.39;61.30
13767;BME280;47980;48.794;9.176;2023-09-30T10:06:19;99252.50;;;21.60;61.65
13767;BME280;47980;48.794;9.176;2023-09-30T10:08:51;99244.47;;;21.67;61.39
13767;BME280;47980;48.794;9.176;2023-09-30T10:11:23;99248.69;;;20.71;62.88
13767;BME280;47980;48.794;9.176;2023-09-30T10:13:56;99253.06;;;20.82;63.75
13767;BME280;47980;48.794;9.176;2023-09-30T10:16:50;99239.72;;;20.93;62.88
13767;BME280;47980;48.794;9.176;2023-09-30T10:19:22;99228.28;;;20.73;62.83
13767;BME280;47980;48.794;9.176;2023-09-30T10:22:22;99228.25;;;20.47;64.06
13767;BME280;47980;48.794;9.176;2023-09-30T10:24:55;99229.38;;;20.19;64.29
13767;BME280;47980;48.794;9.176;2023-09-30T10:27:28;99226.88;;;20.07;65.67
13767;BME280;47980;48.794;9.176;2023-09-30T10:30:03;99221.09;;;20.31;65.30
13767;BME280;47980;48.794;9.176;2023-09-30T10:33:10;99225.50;;;20.43;65.71
13767;BME280;47980;48.794;9.176;2023-09-30T10:35:44;99234.34;;;20.93;61.86
13767;BME280;47980;48.794;9.176;2023-09-30T10:38:38;99235.72;;;20.53;63.97
13767;BME280;47980;48.794;9.176;2023-09-30T10:41:49;99231.91;;;20.08;65.12
13767;BME280;47980;48.794;9.176;2023-09-30T10:44:35;99221.09;;;20.31;62.98
13767;BME280;47980;48.794;9.176;2023-09-30T10:47:35;99223.31;;;20.26;65.28
13767;BME280;47980;48.794;9.176;2023-09-30T10:53:10;99217.44;;;20.70;63.88
13767;BME280;47980;48.794;9.176;2023-09-30T10:55:43;99220.78;;;21.20;62.18
13767;BME280;47980;48.794;9.176;2023-09-30T10:58:15;99207.81;;;21.66;60.61
13767;BME280;47980;48.794;9.176;2023-09-30T11:00:53;99202.94;;;21.79;60.05
13767;BME280;47980;48.794;9.176;2023-09-30T11:03:26;99205.28;;;22.28;58.95
13767;BME280;47980;48.794;9.176;2023-09-30T11:05:57;99199.56;;;22.37;56.19
13767;BME280;47980;48.794;9.176;2023-09-30T11:08:32;99202.31;;;22.44;55.67
13767;BME280;47980;48.794;9.176;2023-09-30T11:11:04;99191.66;;;22.14;55.21
13767;BME280;47980;48.794;9.176;2023-09-30T11:13:36;99183.06;;;22.05;55.81
13767;BME280;47980;48.794;9.176;2023-09-30T11:16:09;99175.66;;;22.46;54.47
13767;BME280;47980;48.794;9.176;2023-09-30T11:18:40;99171.78;;;22.47;54.05
13767;BME280;47980;48.794;9.176;2023-09-30T11:21:13;99178.56;;;22.82;54.23
13767;BME280;47980;48.794;9.176;2023-09-30T11:23:46;99178.66;;;23.00;53.83
13767;BME280;47980;48.794;9.176;2023-09-30T11:26:29;99171.34;;;23.08;53.57
13767;BME280;47980;48.794;9.176;2023-09-30T11:29:05;99173.44;;;23.68;52.94
13767;BME280;47980;48.794;9.176;2023-09-30T11:31:37;99171.41;;;23.36;53.46
13767;BME280;47980;48.794;9.176;2023-09-30T11:34:09;99172.19;;;23.40;52.44
13767;BME280;47980;48.794;9.176;2023-09-30T11:36:48;99180.38;;;22.60;53.96
13767;BME280;47980;48.794;9.176;2023-09-30T11:39:25;99181.44;;;22.45;54.82
13767;BME280;47980;48.794;9.176;2023-09-30T11:41:57;99176.16;;;22.11;54.85
13767;BME280;47980;48.794;9.176;2023-09-30T11:44:31;99168.38;;;22.02;53.57
13767;BME280;47980;48.794;9.176;2023-09-30T11:47:02;99177.56;;;22.42;53.24
13767;BME280;47980;48.794;9.176;2023-09-30T11:49:39;99176.72;;;21.83;53.64
13767;BME280;47980;48.794;9.176;2023-09-30T11:52:12;99176.41;;;21.92;53.18
13767;BME280;47980;48.794;9.176;2023-09-30T11:54:46;99172.53;;;21.93;52.49
13767;BME280;47980;48.794;9.176;2023-09-30T11:57:18;99175.31;;;21.55;53.21
13767;BME280;47980;48.794;9.176;2023-09-30T11:59:49;99171.25;;;21.76;51.58
13767;BME280;47980;48.794;9.176;2023-09-30T12:02:22;99173.59;;;21.81;52.33
13767;BME280;47980;48.794;9.176;2023-09-30T12:04:53;99174.38;;;21.81;52.81
13767;BME280;47980;48.794;9.176;2023-09-30T12:07:25;99186.44;;;21.50;53.44
13767;BME280;47980;48.794;9.176;2023-09-30T12:09:58;99179.09;;;21.92;53.30
13767;BME280;47980;48.794;9.176;2023-09-30T12:12:32;99179.38;;;22.24;52.83
13767;BME280;47980;48.794;9.176;2023-09-30T12:15:09;99178.66;;;22.30;53.66
13767;BME280;47980;48.794;9.176;2023-09-30T12:17:41;99175.50;;;22.21;53.69
13767;BME280;47980;48.794;9.176;2023-09-30T12:20:12;99178.19;;;22.21;53.31
13767;BME280;47980;48.794;9.176;2023-09-30T12:22:45;99181.66;;;22.22;53.62
13767;BME280;47980;48.794;9.176;2023-09-30T12:25:18;99177.00;;;22.15;53.63
13767;BME280;47980;48.794;9.176;2023-09-30T12:27:51;99175.03;;;22.12;53.72
13767;BME280;47980;48.794;9.176;2023-09-30T12:30:25;99171.00;;;22.43;54.42
13767;BME280;47980;48.794;9.176;2023-09-30T12:32:57;99167.22;;;22.58;55.08
13767;BME280;47980;48.794;9.176;2023-09-30T12:35:28;99178.91;;;22.73;54.36
13767;BME280;47980;48.794;9.176;2023-09-30T12:38:00;99164.06;;;22.46;55.40
13767;BME280;47980;48.794;9.176;2023-09-30T12:40:32;99157.78;;;23.00;53.32
13767;BME280;47980;48.794;9.176;2023-09-30T12:43:04;99165.88;;;22.97;51.06
13767;BME280;47980;48.794;9.176;2023-09-30T12:45:37;99160.09;;;23.02;50.94
13767;BME280;47980;48.794;9.176;2023-09-30T12:48:08;99165.38;;;22.73;52.14
13767;BME280;47980;48.794;9.176;2023-09-30T12:50:41;99160.03;;;22.18;52.19
13767;BME280;47980;48.794;9.176;2023-09-30T12:53:12;99161.19;;;22.21;51.89
13767;BME280;47980;48.794;9.176;2023-09-30T12:55:45;99155.84;;;22.28;51.65
13767;BME280;47980;48.794;9.176;2023-09-30T12:58:16;99163.09;;;22.17;51.08
13767;BME280;47980;48.794;9.176;2023-09-30T13:00:48;99172.09;;;21.83;51.71
13767;BME280;47980;48.794;9.176;2023-09-30T13:03:20;99165.19;;;21.90;52.20
13767;BME280;47980;48.794;9.176;2023-09-30T13:05:51;99165.63;;;21.95;52.61
13767;BME280;47980;48.794;9.176;2023-09-30T13:08:24;99158.47;;;22.17;52.07
13767;BME280;47980;48.794;9.176;2023-09-30T13:10:57;99155.97;;;22.49;50.13
13767;BME280;47980;48.794;9.176;2023-09-30T13:13:30;99149.78;;;22.49;50.39
13767;BME280;47980;48.794;9.176;2023-09-30T13:16:04;99149.53;;;22.79;49.20
13767;BME280;47980;48.794;9.176;2023-09-30T13:18:36;99132.53;;;22.75;49.36
13767;BME280;47980;48.794;9.176;2023-09-30T13:21:07;99131.63;;;22.49;49.75
13767;BME280;47980;48.794;9.176;2023-09-30T13:23:39;99125.47;;;22.52;49.59
13767;BME280;47980;48.794;9.176;2023-09-30T13:26:12;99125.13;;;22.65;49.90
13767;BME280;47980;48.794;9.176;2023-09-30T13:28:43;99124.16;;;22.28;51.74
13767;BME280;47980;48.794;9.176;2023-09-30T13:31:15;99121.53;;;21.84;52.48
13767;BME280;47980;48.794;9.176;2023-09-30T13:33:47;99121.25;;;22.00;53.68